Time;durP1;ratioP1;P1;durP2;ratioP2;P2;SDS_P1;SDS_P2;PMS_P1;PMS_P2;Temp;Humidity;BMP_temperature;BMP_pressure;BME280_temperature;BME280_humidity;BME280_pressure;Samples;Min_cycle;Max_cycle;Signal;HPM_P1;HPM_P2
2024/01/06 00:01:01;;;;;;;10.47;5.70;;;5.00;1.00;;;;;;5010235;28;20241;-74
2024/01/06 00:03:26;;;;;;;11.80;7.30;;;5.10;1.00;;;;;;4991851;28;20657;-75
2024/01/06 00:05:52;;;;;;;9.70;6.00;;;5.10;1.00;;;;;;5009618;28;20202;-75
2024/01/06 00:08:17;;;;;;;11.50;5.73;;;5.20;1.00;;;;;;4992548;28;20261;-75
2024/01/06 00:10:43;;;;;;;11.30;5.70;;;4.70;1.00;;;;;;4992223;28;20210;-75
2024/01/06 00:13:09;;;;;;;13.30;5.83;;;4.70;1.00;;;;;;5009561;28;20611;-75
2024/01/06 00:15:35;;;;;;;8.03;5.43;;;4.70;1.00;;;;;;5009243;28;20190;-75
2024/01/06 00:18:00;;;;;;;7.80;5.30;;;4.80;1.00;;;;;;5009798;28;20483;-75
2024/01/06 00:20:26;;;;;;;10.67;5.80;;;4.70;1.00;;;;;;5002444;28;20211;-73
2024/01/06 00:22:51;;;;;;;9.83;5.70;;;4.60;1.00;;;;;;5009750;28;20265;-75
2024/01/06 00:25:16;;;;;;;9.10;5.70;;;4.60;1.00;;;;;;5010095;28;20244;-77
2024/01/06 00:27:42;;;;;;;7.73;4.80;;;4.60;1.00;;;;;;5009478;28;20201;-74
2024/01/06 00:30:08;;;;;;;8.60;5.63;;;4.60;1.00;;;;;;5005496;28;20297;-74
2024/01/06 00:32:33;;;;;;;12.13;5.00;;;4.60;1.00;;;;;;4989521;28;20669;-74
2024/01/06 00:34:59;;;;;;;11.90;5.50;;;5.10;1.00;;;;;;5009639;28;20733;-75
2024/01/06 00:37:24;;;;;;;9.87;6.47;;;4.80;1.00;;;;;;5009021;28;20198;-74
2024/01/06 00:39:50;;;;;;;10.90;6.00;;;4.50;1.00;;;;;;5009178;28;20210;-75
2024/01/06 00:42:15;;;;;;;9.50;5.70;;;4.40;1.00;;;;;;5009247;28;20182;-76
2024/01/06 00:44:41;;;;;;;9.67;5.67;;;4.60;1.00;;;;;;4991607;28;20186;-75
2024/01/06 00:47:06;;;;;;;8.37;5.67;;;4.50;1.00;;;;;;5008369;28;20213;-75
2024/01/06 00:49:32;;;;;;;13.10;5.83;;;4.60;1.00;;;;;;5009098;28;20202;-76
2024/01/06 00:51:57;;;;;;;9.77;5.90;;;4.60;1.00;;;;;;4991793;28;20186;-75
2024/01/06 00:54:23;;;;;;;13.47;6.00;;;4.60;1.00;;;;;;5009797;28;20194;-73
2024/01/06 00:56:48;;;;;;;8.20;5.60;;;4.90;1.00;;;;;;4990661;28;20210;-75
2024/01/06 00:59:14;;;;;;;8.00;5.03;;;4.60;1.00;;;;;;5008252;28;20194;-75
2024/01/06 01:01:39;;;;;;;9.40;5.07;;;5.10;1.00;;;;;;5009006;28;20833;-75
2024/01/06 01:04:05;;;;;;;7.43;5.03;;;4.60;1.00;;;;;;5008919;28;20191;-75
2024/01/06 01:06:30;;;;;;;8.40;4.87;;;4.50;1.00;;;;;;5008253;28;20210;-74
2024/01/06 01:08:56;;;;;;;10.40;5.90;;;4.50;1.00;;;;;;5007614;28;20723;-75
2024/01/06 01:11:21;;;;;;;11.13;5.57;;;4.40;1.00;;;;;;5009125;28;20664;-75
2024/01/06 01:13:47;;;;;;;10.10;5.53;;;4.40;1.00;;;;;;5009013;28;20179;-77
2024/01/06 01:16:12;;;;;;;7.30;4.83;;;4.40;1.00;;;;;;5008674;28;20206;-75
2024/01/06 01:18:38;;;;;;;9.53;5.20;;;4.80;1.00;;;;;;5008109;28;20190;-75
2024/01/06 01:21:03;;;;;;;10.47;5.77;;;4.40;1.00;;;;;;5008677;28;20260;-75
2024/01/06 01:23:29;;;;;;;7.37;5.47;;;4.40;1.00;;;;;;5009455;28;20270;-75
2024/01/06 01:25:55;;;;;;;11.90;5.63;;;4.40;1.00;;;;;;4985055;28;20198;-75
2024/01/06 01:28:20;;;;;;;8.90;6.20;;;4.40;1.00;;;;;;5008848;28;20545;-75
2024/01/06 01:30:46;;;;;;;7.70;5.63;;;4.50;1.00;;;;;;5008470;28;20218;-77
2024/01/06 01:33:11;;;;;;;10.30;5.80;;;4.50;1.00;;;;;;5008708;28;20209;-75
2024/01/06 01:35:37;;;;;;;13.83;6.93;;;4.80;1.00;;;;;;5001954;28;20195;-75
2024/01/06 01:38:03;;;;;;;9.77;6.00;;;4.60;1.00;;;;;;5008622;28;20182;-75
2024/01/06 01:40:28;;;;;;;13.13;5.97;;;4.60;1.00;;;;;;5007459;28;20209;-75
2024/01/06 01:42:53;;;;;;;7.70;5.43;;;4.70;1.00;;;;;;5007909;28;20182;-75
2024/01/06 01:45:19;;;;;;;11.10;5.40;;;5.10;1.00;;;;;;5002083;28;20190;-74
2024/01/06 01:47:45;;;;;;;9.17;5.90;;;5.10;1.00;;;;;;5006588;28;20186;-75
2024/01/06 01:50:12;;;;;;;8.37;5.67;;;4.90;1.00;;;;;;5008230;28;20198;-75
2024/01/06 01:52:39;;;;;;;9.50;5.50;;;5.00;1.00;;;;;;4991024;28;20428;-75
2024/01/06 01:55:05;;;;;;;12.40;5.93;;;5.10;1.00;;;;;;5008098;28;20479;-76
2024/01/06 01:57:31;;;;;;;10.30;5.33;;;5.00;1.00;;;;;;5004607;28;21003;-75
2024/01/06 01:59:57;;;;;;;9.80;5.40;;;5.10;1.00;;;;;;5008469;28;20212;-75
2024/01/06 02:02:23;;;;;;;11.37;5.40;;;4.70;1.00;;;;;;5008325;28;20190;-75
2024/01/06 02:04:48;;;;;;;7.57;5.00;;;5.00;1.00;;;;;;5005998;28;21017;-76
2024/01/06 02:07:14;;;;;;;8.93;5.60;;;5.10;1.00;;;;;;5001731;28;20468;-75
2024/01/06 02:09:40;;;;;;;8.33;5.33;;;4.80;1.00;;;;;;5008060;28;20668;-76
2024/01/06 02:12:05;;;;;;;9.30;5.40;;;4.80;1.00;;;;;;5008807;28;20249;-75
2024/01/06 02:14:32;;;;;;;8.40;5.20;;;4.90;1.00;;;;;;5007782;28;20185;-75
2024/01/06 02:16:58;;;;;;;7.43;4.93;;;5.00;1.00;;;;;;5007762;28;20178;-77
2024/01/06 02:19:24;;;;;;;8.60;4.80;;;5.10;1.00;;;;;;5008757;28;20452;-75
2024/01/06 02:21:53;;;;;;;9.73;4.90;;;5.40;1.00;;;;;;5008017;28;20275;-75
2024/01/06 02:24:18;;;;;;;7.53;4.67;;;5.00;1.00;;;;;;5007303;28;20740;-76
2024/01/06 02:26:44;;;;;;;7.50;5.10;;;5.30;1.00;;;;;;5007788;28;20544;-73
2024/01/06 02:29:09;;;;;;;11.17;4.60;;;5.00;1.00;;;;;;4990725;28;20202;-75
2024/01/06 02:31:35;;;;;;;7.70;4.40;;;5.00;1.00;;;;;;5008289;28;20190;-75
2024/01/06 02:34:00;;;;;;;11.13;5.53;;;5.00;1.00;;;;;;5008056;28;20174;-75
2024/01/06 02:36:26;;;;;;;9.53;5.00;;;5.00;1.00;;;;;;5008152;28;20191;-75
2024/01/06 02:38:51;;;;;;;9.87;5.47;;;5.00;1.00;;;;;;5007835;28;20190;-74
2024/01/06 02:41:16;;;;;;;7.17;4.67;;;5.20;1.00;;;;;;5007796;28;20202;-76
2024/01/06 02:43:42;;;;;;;16.10;5.10;;;4.90;1.00;;;;;;5008305;28;20314;-72
2024/01/06 02:46:07;;;;;;;7.20;4.40;;;4.90;1.00;;;;;;5011355;28;20202;-74
2024/01/06 02:48:33;;;;;;;7.63;4.40;;;4.90;1.00;;;;;;5011620;28;20193;-75
2024/01/06 02:50:58;;;;;;;8.77;4.63;;;4.90;1.00;;;;;;4986411;28;20840;-75
2024/01/06 02:53:24;;;;;;;6.83;4.77;;;5.20;1.00;;;;;;5011606;28;20189;-75
2024/01/06 02:55:49;;;;;;;12.83;5.37;;;5.10;1.00;;;;;;5010897;28;20198;-77
2024/01/06 02:58:15;;;;;;;7.03;4.33;;;5.10;1.00;;;;;;5011382;28;20243;-75
2024/01/06 03:00:40;;;;;;;8.50;5.10;;;5.10;1.00;;;;;;4993054;28;20217;-75
2024/01/06 03:03:06;;;;;;;8.50;4.50;;;5.30;1.00;;;;;;4994051;28;20195;-75
2024/01/06 03:05:31;;;;;;;8.90;4.37;;;5.00;1.00;;;;;;5011238;28;20285;-75
2024/01/06 03:07:57;;;;;;;8.07;4.93;;;5.00;1.00;;;;;;4993214;28;20190;-75
2024/01/06 03:10:22;;;;;;;10.20;5.50;;;5.00;1.00;;;;;;5011041;28;20222;-75
2024/01/06 03:12:48;;;;;;;7.00;4.70;;;5.00;1.00;;;;;;5003982;28;20195;-75
2024/01/06 03:15:14;;;;;;;6.83;4.40;;;5.00;1.00;;;;;;5011283;28;20183;-72
2024/01/06 03:17:39;;;;;;;13.70;4.80;;;5.00;1.00;;;;;;5011279;28;20187;-75
2024/01/06 03:20:05;;;;;;;4.93;3.63;;;5.10;1.00;;;;;;4993025;28;20640;-76
2024/01/06 03:22:31;;;;;;;6.20;4.20;;;5.20;1.00;;;;;;4992407;28;20681;-76
2024/01/06 03:24:56;;;;;;;9.37;4.13;;;4.90;1.00;;;;;;5011004;28;20453;-75
2024/01/06 03:27:22;;;;;;;7.30;3.87;;;5.20;1.00;;;;;;5010751;28;20584;-75
2024/01/06 03:29:47;;;;;;;7.80;4.00;;;5.30;1.00;;;;;;4993148;28;20211;-75
2024/01/06 03:32:13;;;;;;;7.33;3.40;;;5.40;1.00;;;;;;4991803;28;20178;-75
2024/01/06 03:34:40;;;;;;;5.50;3.40;;;5.90;1.00;;;;;;5004905;28;20214;-76
2024/01/06 03:37:05;;;;;;;8.37;3.77;;;5.50;1.00;;;;;;4992014;28;20689;-75
2024/01/06 03:39:31;;;;;;;6.17;3.33;;;5.50;1.00;;;;;;5011111;28;20457;-75
2024/01/06 03:41:56;;;;;;;6.67;3.73;;;5.50;1.00;;;;;;5010145;28;20665;-74
2024/01/06 03:44:22;;;;;;;7.10;3.60;;;5.50;1.00;;;;;;5009390;28;20576;-75
2024/01/06 03:46:47;;;;;;;6.20;3.20;;;5.50;1.00;;;;;;5010044;28;20210;-75
2024/01/06 03:49:13;;;;;;;8.70;3.33;;;5.50;1.00;;;;;;5010721;28;20182;-75
2024/01/06 03:51:38;;;;;;;8.70;3.30;;;5.50;1.00;;;;;;5008663;28;20575;-75
2024/01/06 03:54:04;;;;;;;7.83;3.43;;;5.50;1.00;;;;;;4992563;28;20198;-76
2024/01/06 03:56:30;;;;;;;7.67;3.60;;;5.40;1.00;;;;;;5009462;28;20216;-75
2024/01/06 03:58:55;;;;;;;10.53;3.43;;;5.70;1.00;;;;;;5010140;28;20241;-75
2024/01/06 04:01:21;;;;;;;7.20;3.67;;;5.40;1.00;;;;;;5010339;28;20632;-75
2024/01/06 04:03:46;;;;;;;6.53;3.40;;;4.70;1.00;;;;;;4991297;28;20201;-76
2024/01/06 04:06:12;;;;;;;8.33;3.43;;;5.50;1.00;;;;;;4999864;28;20210;-75
2024/01/06 04:08:39;;;;;;;5.90;3.20;;;5.50;1.00;;;;;;5010471;28;20222;-75
2024/01/06 04:11:05;;;;;;;6.57;3.50;;;5.60;1.00;;;;;;5009724;28;20211;-75
2024/01/06 04:13:30;;;;;;;7.17;3.20;;;5.60;1.00;;;;;;5010393;28;20429;-75
2024/01/06 04:15:56;;;;;;;5.93;2.90;;;5.70;1.00;;;;;;5009477;28;20411;-75
2024/01/06 04:18:21;;;;;;;4.73;2.80;;;5.70;1.00;;;;;;5008004;28;20182;-76
2024/01/06 04:20:47;;;;;;;9.97;2.87;;;5.70;1.00;;;;;;5009372;28;20712;-74
2024/01/06 04:23:12;;;;;;;4.30;2.73;;;5.90;1.00;;;;;;4992539;28;20187;-75
2024/01/06 04:25:38;;;;;;;5.70;2.57;;;5.70;1.00;;;;;;5009985;28;20642;-76
2024/01/06 04:28:04;;;;;;;10.60;3.33;;;5.80;1.00;;;;;;5009228;28;20201;-74
2024/01/06 04:30:29;;;;;;;5.13;2.67;;;5.70;1.00;;;;;;5009837;28;20893;-75
2024/01/06 04:32:56;;;;;;;4.97;2.80;;;5.80;1.00;;;;;;5009660;28;20644;-75
2024/01/06 04:35:22;;;;;;;6.73;2.70;;;6.10;1.00;;;;;;5004327;28;20188;-75
2024/01/06 04:37:47;;;;;;;5.30;3.13;;;5.80;1.00;;;;;;4985551;28;20444;-75
2024/01/06 04:40:13;;;;;;;8.60;3.03;;;5.90;1.00;;;;;;5009346;28;20321;-75
2024/01/06 04:42:38;;;;;;;7.73;2.83;;;5.90;1.00;;;;;;5004857;28;20588;-75
2024/01/06 04:45:04;;;;;;;6.53;2.63;;;5.90;1.00;;;;;;5009448;28;20696;-75
2024/01/06 04:47:30;;;;;;;6.00;2.83;;;5.90;1.00;;;;;;5009065;28;20557;-75
2024/01/06 04:49:56;;;;;;;5.60;2.87;;;6.00;1.00;;;;;;5007041;28;20447;-75
2024/01/06 04:52:22;;;;;;;6.67;2.90;;;6.00;1.00;;;;;;5009696;28;20194;-76
2024/01/06 04:54:48;;;;;;;5.30;3.00;;;6.00;1.00;;;;;;5009602;28;20267;-74
2024/01/06 04:57:14;;;;;;;7.37;2.63;;;6.00;1.00;;;;;;4991134;28;20520;-76
2024/01/06 04:59:39;;;;;;;4.93;2.83;;;6.10;1.00;;;;;;5009703;28;20702;-74
2024/01/06 05:02:05;;;;;;;6.13;2.67;;;6.20;1.00;;;;;;4991155;28;20504;-74
2024/01/06 05:04:32;;;;;;;9.30;3.30;;;6.20;1.00;;;;;;5007254;28;20220;-75
2024/01/06 05:06:58;;;;;;;5.13;2.40;;;6.20;1.00;;;;;;5008377;28;20472;-75
2024/01/06 05:09:23;;;;;;;4.30;2.40;;;6.30;1.00;;;;;;5009502;28;20441;-76
2024/01/06 05:11:49;;;;;;;4.80;2.53;;;6.30;1.00;;;;;;4991149;28;20453;-74
2024/01/06 05:14:14;;;;;;;4.10;2.47;;;6.30;1.00;;;;;;5009002;28;20209;-76
2024/01/06 05:16:40;;;;;;;4.47;2.80;;;6.30;1.00;;;;;;5003265;28;20245;-76
2024/01/06 05:19:05;;;;;;;7.00;2.77;;;6.30;1.00;;;;;;5006812;28;20273;-73
2024/01/06 05:21:31;;;;;;;4.80;2.33;;;6.30;1.00;;;;;;5009429;28;20532;-74
2024/01/06 05:23:56;;;;;;;5.73;2.87;;;6.30;1.00;;;;;;4991113;28;20193;-75
2024/01/06 05:26:22;;;;;;;5.50;2.70;;;6.30;1.00;;;;;;5008936;28;20206;-73
2024/01/06 05:28:48;;;;;;;6.17;2.67;;;6.40;1.00;;;;;;5008943;28;20190;-74
2024/01/06 05:31:14;;;;;;;3.60;2.40;;;6.30;1.00;;;;;;5008522;28;20309;-74
2024/01/06 05:33:39;;;;;;;4.47;2.63;;;6.30;1.00;;;;;;5008241;28;20429;-75
2024/01/06 05:36:05;;;;;;;3.43;2.30;;;6.30;1.00;;;;;;5008288;28;20186;-76
2024/01/06 05:38:30;;;;;;;5.67;2.70;;;6.30;1.00;;;;;;5009213;28;20186;-75
2024/01/06 05:40:56;;;;;;;6.20;3.07;;;6.30;1.00;;;;;;4990796;28;20349;-75
2024/01/06 05:43:21;;;;;;;5.33;2.93;;;6.30;1.00;;;;;;5008938;28;20239;-75
2024/01/06 05:45:47;;;;;;;5.13;3.03;;;6.30;1.00;;;;;;5008098;28;20631;-77
2024/01/06 05:48:12;;;;;;;5.27;2.83;;;6.30;1.00;;;;;;5005283;28;20238;-72
2024/01/06 05:50:41;;;;;;;6.30;3.23;;;6.40;1.00;;;;;;5008497;28;20221;-75
2024/01/06 05:53:07;;;;;;;6.30;3.17;;;6.40;1.00;;;;;;5008465;28;20263;-74
2024/01/06 05:55:33;;;;;;;11.03;3.27;;;6.40;1.00;;;;;;5008732;28;20935;-73
2024/01/06 05:57:59;;;;;;;14.60;3.13;;;6.40;1.00;;;;;;5008233;28;20441;-74
2024/01/06 06:00:24;;;;;;;5.33;2.63;;;6.40;1.00;;;;;;5007684;28;20544;-75
2024/01/06 06:02:50;;;;;;;5.07;3.07;;;6.40;1.00;;;;;;5006621;28;20529;-75
2024/01/06 06:05:15;;;;;;;5.53;2.77;;;6.50;1.00;;;;;;4990544;28;20297;-76
2024/01/06 06:07:42;;;;;;;6.90;2.90;;;6.50;1.00;;;;;;5008557;28;20206;-75
2024/01/06 06:10:09;;;;;;;4.80;2.77;;;6.50;1.00;;;;;;4990192;28;20209;-75
2024/01/06 06:12:35;;;;;;;7.90;2.90;;;6.40;1.00;;;;;;5008455;28;20800;-75
2024/01/06 06:15:03;;;;;;;5.20;2.90;;;6.40;1.00;;;;;;5003323;28;20454;-75
2024/01/06 06:17:29;;;;;;;7.43;3.00;;;6.40;1.00;;;;;;5007428;28;20472;-77
2024/01/06 06:19:54;;;;;;;7.90;2.77;;;6.40;1.00;;;;;;4994013;28;20480;-75
2024/01/06 06:22:21;;;;;;;5.63;2.30;;;6.40;1.00;;;;;;5012045;28;20178;-75
2024/01/06 06:24:47;;;;;;;4.20;2.87;;;6.40;1.00;;;;;;5012506;28;20182;-76
2024/01/06 06:27:12;;;;;;;7.60;2.80;;;6.40;1.00;;;;;;5010154;28;20536;-75
2024/01/06 06:29:38;;;;;;;5.67;2.93;;;6.50;1.00;;;;;;4987259;28;20209;-75
2024/01/06 06:32:03;;;;;;;4.20;2.50;;;6.50;1.00;;;;;;5011517;28;20170;-76
2024/01/06 06:34:29;;;;;;;5.63;2.57;;;6.50;1.00;;;;;;5012387;28;20214;-75
2024/01/06 06:36:54;;;;;;;7.10;3.20;;;6.50;1.00;;;;;;4992114;28;20289;-75
2024/01/06 06:39:20;;;;;;;7.27;2.70;;;6.40;1.00;;;;;;5012084;28;20194;-75
2024/01/06 06:41:45;;;;;;;5.83;2.60;;;6.40;1.00;;;;;;5011609;28;20185;-76
2024/01/06 06:44:11;;;;;;;7.17;2.60;;;6.50;1.00;;;;;;5003726;28;20183;-75
2024/01/06 06:46:36;;;;;;;6.33;2.53;;;6.50;1.00;;;;;;4989579;28;20237;-75
2024/01/06 06:49:02;;;;;;;3.97;2.60;;;6.50;1.00;;;;;;5011505;28;20553;-75
2024/01/06 06:51:29;;;;;;;11.67;3.27;;;6.60;1.00;;;;;;4994224;28;20246;-75
2024/01/06 06:53:55;;;;;;;4.33;2.60;;;6.50;1.00;;;;;;5011757;28;20568;-75
2024/01/06 06:56:20;;;;;;;6.00;2.90;;;6.50;1.00;;;;;;4993133;28;20512;-76
2024/01/06 06:58:46;;;;;;;10.13;3.30;;;6.50;1.00;;;;;;5010100;28;20588;-75
2024/01/06 07:01:14;;;;;;;5.03;2.90;;;6.50;1.00;;;;;;5011207;28;20206;-75
2024/01/06 07:03:40;;;;;;;9.87;3.27;;;6.50;1.00;;;;;;5011879;28;20189;-75
2024/01/06 07:06:05;;;;;;;3.93;2.70;;;6.50;1.00;;;;;;5011155;28;20464;-75
2024/01/06 07:08:31;;;;;;;9.10;2.77;;;6.40;1.00;;;;;;5011596;28;20245;-75
2024/01/06 07:10:56;;;;;;;6.10;2.60;;;6.40;1.00;;;;;;5005032;28;20207;-75
2024/01/06 07:13:22;;;;;;;9.10;5.00;;;6.40;1.00;;;;;;5003868;28;20717;-75
2024/01/06 07:15:47;;;;;;;22.63;9.37;;;6.50;1.00;;;;;;4989043;28;20178;-77
2024/01/06 07:18:13;;;;;;;21.93;10.43;;;6.40;1.00;;;;;;5011114;28;20206;-75
2024/01/06 07:20:38;;;;;;;15.90;6.00;;;6.50;1.00;;;;;;5007977;28;20213;-76
2024/01/06 07:23:04;;;;;;;7.60;4.00;;;6.50;1.00;;;;;;5011106;28;20186;-72
2024/01/06 07:25:30;;;;;;;6.40;2.60;;;6.50;1.00;;;;;;5011225;28;20293;-75
2024/01/06 07:27:55;;;;;;;4.23;2.67;;;6.40;1.00;;;;;;5007005;28;20185;-76
2024/01/06 07:30:21;;;;;;;4.10;2.90;;;6.40;1.00;;;;;;5010137;28;20449;-76
2024/01/06 07:32:47;;;;;;;4.33;3.07;;;6.40;1.00;;;;;;4997450;28;20194;-75
2024/01/06 07:35:13;;;;;;;5.10;2.97;;;6.40;1.00;;;;;;5010766;28;20171;-75
2024/01/06 07:37:39;;;;;;;10.60;2.90;;;6.40;1.00;;;;;;5011030;28;20183;-75
2024/01/06 07:40:05;;;;;;;5.40;2.63;;;6.40;1.00;;;;;;5011012;28;20444;-76
2024/01/06 07:42:31;;;;;;;4.90;3.53;;;6.50;1.00;;;;;;4995532;28;20204;-76
2024/01/06 07:44:57;;;;;;;5.00;3.10;;;6.50;1.00;;;;;;5005999;28;20794;-76
2024/01/06 07:47:22;;;;;;;6.80;2.77;;;6.50;1.00;;;;;;5010040;28;20461;-75
2024/01/06 07:49:48;;;;;;;7.50;2.80;;;6.50;1.00;;;;;;5010889;28;20234;-75
2024/01/06 07:52:13;;;;;;;4.73;2.67;;;6.50;1.00;;;;;;4992562;28;20186;-75
2024/01/06 07:54:39;;;;;;;6.73;2.70;;;6.50;1.00;;;;;;4993070;28;20187;-77
2024/01/06 07:57:04;;;;;;;7.27;3.07;;;6.50;1.00;;;;;;5010087;28;20187;-75
2024/01/06 07:59:30;;;;;;;12.83;7.30;;;6.60;1.00;;;;;;4983514;28;20226;-75
2024/01/06 08:01:56;;;;;;;9.10;3.50;;;6.60;1.00;;;;;;4989602;28;20677;-75
2024/01/06 08:04:21;;;;;;;8.70;5.07;;;6.70;1.00;;;;;;4991336;28;20872;-75
2024/01/06 08:06:47;;;;;;;7.40;3.43;;;6.70;1.00;;;;;;5008512;28;20439;-75
2024/01/06 08:09:12;;;;;;;6.83;3.20;;;7.10;1.00;;;;;;5010038;28;20457;-75
2024/01/06 08:11:38;;;;;;;12.37;3.17;;;7.00;1.00;;;;;;5004187;28;20724;-76
2024/01/06 08:14:04;;;;;;;7.00;3.20;;;7.20;1.00;;;;;;5006776;28;20175;-76
2024/01/06 08:16:29;;;;;;;5.90;3.07;;;7.30;1.00;;;;;;5009398;28;21000;-75
2024/01/06 08:18:55;;;;;;;8.20;3.23;;;7.40;1.00;;;;;;5003761;28;20565;-75
2024/01/06 08:21:20;;;;;;;6.80;3.40;;;7.30;1.00;;;;;;5007872;28;20688;-78
2024/01/06 08:23:46;;;;;;;10.27;3.30;;;7.20;1.00;;;;;;5009431;28;20202;-76
2024/01/06 08:26:12;;;;;;;5.53;3.17;;;7.10;1.00;;;;;;5009622;28;20210;-76
2024/01/06 08:28:37;;;;;;;4.83;3.30;;;7.10;1.00;;;;;;5010046;28;20282;-77
2024/01/06 08:31:03;;;;;;;5.07;2.77;;;7.20;1.00;;;;;;5008707;28;20855;-77
2024/01/06 08:33:28;;;;;;;5.83;3.03;;;7.20;1.00;;;;;;5009149;28;20719;-76
2024/01/06 08:35:54;;;;;;;4.63;2.70;;;7.30;1.00;;;;;;4991879;28;20185;-77
2024/01/06 08:38:22;;;;;;;6.40;3.50;;;7.20;1.00;;;;;;5009289;28;20197;-76
2024/01/06 08:40:50;;;;;;;6.90;3.40;;;7.30;1.00;;;;;;5009319;28;20483;-77
2024/01/06 08:43:15;;;;;;;7.40;3.37;;;7.20;1.00;;;;;;4991104;28;20512;-78
2024/01/06 08:45:41;;;;;;;4.23;3.10;;;7.20;1.00;;;;;;5009457;28;20485;-75
2024/01/06 08:48:07;;;;;;;4.40;3.10;;;7.20;1.00;;;;;;4990986;28;20175;-77
2024/01/06 08:50:32;;;;;;;4.93;3.00;;;7.20;1.00;;;;;;5008816;28;20589;-76
2024/01/06 08:52:58;;;;;;;6.70;3.63;;;7.20;1.00;;;;;;5009929;28;20671;-77
2024/01/06 08:55:24;;;;;;;6.73;3.43;;;7.20;1.00;;;;;;5008809;28;20189;-75
2024/01/06 08:57:49;;;;;;;7.80;3.00;;;7.20;1.00;;;;;;5008932;28;20265;-76
2024/01/06 09:00:15;;;;;;;6.60;3.00;;;7.30;1.00;;;;;;5008399;28;20576;-75
2024/01/06 09:02:41;;;;;;;7.00;3.17;;;7.30;1.00;;;;;;5007439;28;20182;-76
2024/01/06 09:05:07;;;;;;;5.70;2.93;;;7.30;1.00;;;;;;4991437;28;20443;-76
2024/01/06 09:07:32;;;;;;;10.10;3.07;;;7.50;1.00;;;;;;5008585;28;20542;-78
2024/01/06 09:09:58;;;;;;;4.90;3.20;;;7.30;1.00;;;;;;5009463;28;20608;-76
2024/01/06 09:12:23;;;;;;;5.60;3.17;;;7.40;1.00;;;;;;5007133;28;20190;-77
2024/01/06 09:14:49;;;;;;;7.57;3.63;;;7.40;1.00;;;;;;4990495;28;20188;-78
2024/01/06 09:17:14;;;;;;;8.50;3.00;;;7.60;1.00;;;;;;5010645;28;20178;-77
2024/01/06 09:19:40;;;;;;;8.10;3.60;;;7.30;1.00;;;;;;5006987;28;20623;-75
2024/01/06 09:22:05;;;;;;;6.93;2.90;;;7.30;1.00;;;;;;4991401;28;20182;-75
2024/01/06 09:24:31;;;;;;;5.10;3.17;;;7.30;1.00;;;;;;5008570;28;20201;-78
2024/01/06 09:26:56;;;;;;;7.53;3.20;;;7.30;1.00;;;;;;5003460;28;20206;-76
2024/01/06 09:29:22;;;;;;;6.73;3.73;;;7.40;1.00;;;;;;5007876;28;20187;-77
2024/01/06 09:31:47;;;;;;;6.20;3.30;;;7.40;1.00;;;;;;5007760;28;20209;-78
2024/01/06 09:34:13;;;;;;;8.10;3.60;;;7.40;1.00;;;;;;5004908;28;20178;-77
2024/01/06 09:36:38;;;;;;;6.50;3.50;;;5.40;1.00;;;;;;5008761;28;20669;-76
2024/01/06 09:39:04;;;;;;;8.70;3.67;;;7.30;1.00;;;;;;5008878;28;20185;-76
2024/01/06 09:41:31;;;;;;;5.83;3.67;;;7.30;1.00;;;;;;4990622;28;20187;-77
2024/01/06 09:43:56;;;;;;;5.80;3.57;;;7.30;1.00;;;;;;4989455;28;20186;-76
2024/01/06 09:46:29;;;;;;;5.33;3.70;;;7.30;1.00;;;;;;5005565;28;20912;-76
2024/01/06 09:48:56;;;;;;;11.93;3.83;;;7.30;1.00;;;;;;5008658;28;20596;-78
2024/01/06 09:51:23;;;;;;;6.80;3.70;;;7.30;1.00;;;;;;4990309;28;20938;-77
2024/01/06 09:53:56;;;;;;;9.77;3.90;;;7.30;1.00;;;;;;5008639;28;20580;-79
2024/01/06 09:56:23;;;;;;;5.03;3.63;;;7.30;1.00;;;;;;5011944;28;20584;-76
2024/01/06 09:58:49;;;;;;;5.13;3.50;;;7.30;1.00;;;;;;5009054;28;20425;-78
2024/01/06 10:01:17;;;;;;;5.77;3.47;;;7.40;1.00;;;;;;5012852;28;20909;-77
2024/01/06 10:03:42;;;;;;;8.60;3.97;;;7.40;1.00;;;;;;4994908;28;20484;-77
2024/01/06 10:06:09;;;;;;;6.20;3.43;;;7.40;1.00;;;;;;4993977;28;20464;-78
2024/01/06 10:08:35;;;;;;;8.20;4.30;;;7.30;1.00;;;;;;5003522;28;20183;-76
2024/01/06 10:11:01;;;;;;;7.57;3.77;;;7.40;1.00;;;;;;4994478;28;20859;-77
2024/01/06 10:13:28;;;;;;;6.33;3.97;;;7.40;1.00;;;;;;4994911;28;20183;-76
2024/01/06 10:15:56;;;;;;;8.10;4.00;;;7.50;1.00;;;;;;5011556;28;20185;-77
2024/01/06 10:18:21;;;;;;;6.00;3.90;;;7.60;1.00;;;;;;5012076;28;20429;-76
2024/01/06 10:20:47;;;;;;;6.00;4.73;;;7.60;1.00;;;;;;5011778;28;21022;-76
2024/01/06 10:23:13;;;;;;;6.80;4.10;;;7.70;1.00;;;;;;5012604;28;20178;-77
2024/01/06 10:25:39;;;;;;;5.77;4.07;;;7.70;1.00;;;;;;5011789;28;20197;-77
2024/01/06 10:28:04;;;;;;;7.27;4.83;;;7.80;1.00;;;;;;5012395;28;20257;-77
2024/01/06 10:30:30;;;;;;;13.90;4.47;;;7.90;1.00;;;;;;5011609;28;20588;-77
2024/01/06 10:32:55;;;;;;;5.77;3.97;;;7.90;1.00;;;;;;5012131;28;20244;-76
2024/01/06 10:35:21;;;;;;;6.60;4.40;;;8.00;1.00;;;;;;5012076;28;20179;-75
2024/01/06 10:37:49;;;;;;;10.43;4.07;;;8.00;1.00;;;;;;5005016;28;20183;-77
2024/01/06 10:40:16;;;;;;;8.60;4.40;;;8.10;1.00;;;;;;4996190;28;20282;-75
2024/01/06 10:42:42;;;;;;;6.73;4.50;;;8.10;1.00;;;;;;4992867;28;20417;-77
2024/01/06 10:45:09;;;;;;;11.10;5.40;;;8.20;1.00;;;;;;4993831;28;20792;-76
2024/01/06 10:47:36;;;;;;;6.03;3.90;;;8.40;1.00;;;;;;5010469;28;20551;-75
2024/01/06 10:50:02;;;;;;;7.37;5.03;;;8.40;1.00;;;;;;5011115;28;20494;-78
2024/01/06 10:52:28;;;;;;;10.70;4.83;;;8.40;1.00;;;;;;5010143;28;20433;-75
2024/01/06 10:54:54;;;;;;;6.53;4.37;;;8.50;1.00;;;;;;5009564;28;20432;-76
2024/01/06 10:57:21;;;;;;;7.30;4.63;;;8.60;1.00;;;;;;5011261;28;20209;-77
2024/01/06 10:59:51;;;;;;;7.30;4.60;;;8.40;1.00;;;;;;5010738;28;20540;-77
2024/01/06 11:02:18;;;;;;;7.63;4.77;;;8.40;1.00;;;;;;5011208;28;20417;-77
2024/01/06 11:04:45;;;;;;;6.60;4.60;;;8.40;1.00;;;;;;4992696;28;20429;-77
2024/01/06 11:07:13;;;;;;;8.00;4.50;;;8.40;1.00;;;;;;4987020;28;20464;-77
2024/01/06 11:09:46;;;;;;;10.13;4.77;;;8.50;1.00;;;;;;5002261;28;20960;-77
2024/01/06 11:12:12;;;;;;;9.73;5.07;;;8.50;1.00;;;;;;5006482;28;20425;-78
2024/01/06 11:14:38;;;;;;;7.80;4.93;;;8.60;1.00;;;;;;5011305;28;20436;-77
2024/01/06 11:17:04;;;;;;;10.40;5.67;;;8.70;1.00;;;;;;5016330;28;20182;-77
2024/01/06 11:19:39;;;;;;;11.10;5.27;;;8.70;1.00;;;;;;5010532;28;20628;-76
2024/01/06 11:22:36;;;;;;;7.87;5.93;;;8.70;1.00;;;;;;5011419;28;20425;-78
2024/01/06 11:25:07;;;;;;;7.43;5.33;;;8.50;1.00;;;;;;5004893;28;20449;-77
2024/01/06 11:27:33;;;;;;;7.93;5.93;;;8.50;1.00;;;;;;4992955;28;20524;-77
2024/01/06 11:30:01;;;;;;;7.30;5.40;;;8.40;1.00;;;;;;5011107;28;20445;-76
2024/01/06 11:32:33;;;;;;;7.90;5.00;;;8.40;1.00;;;;;;5004183;28;21022;-76
2024/01/06 11:35:09;;;;;;;8.53;5.73;;;8.40;1.00;;;;;;4986404;28;21065;-75
2024/01/06 11:37:36;;;;;;;8.20;5.97;;;8.40;1.00;;;;;;5010762;28;20425;-76
2024/01/06 11:40:02;;;;;;;9.20;5.00;;;8.50;1.00;;;;;;5011036;28;20452;-77
2024/01/06 11:42:35;;;;;;;5.73;4.40;;;8.50;1.00;;;;;;5010600;28;20433;-77
2024/01/06 11:45:07;;;;;;;9.50;4.93;;;8.50;1.00;;;;;;5010631;28;20182;-77
2024/01/06 11:47:34;;;;;;;6.33;4.80;;;8.40;1.00;;;;;;5006652;28;20983;-76
2024/01/06 11:50:04;;;;;;;7.10;5.03;;;8.30;1.00;;;;;;5003261;28;20452;-76
2024/01/06 11:52:33;;;;;;;7.00;4.67;;;8.30;1.00;;;;;;5004873;28;20460;-77
2024/01/06 11:54:59;;;;;;;9.70;4.50;;;8.30;1.00;;;;;;4992515;28;20811;-76
2024/01/06 11:57:28;;;;;;;5.43;4.63;;;8.20;1.00;;;;;;5010370;28;20425;-76
2024/01/06 11:59:54;;;;;;;8.63;5.07;;;8.20;1.00;;;;;;5007280;28;20445;-77
2024/01/06 12:02:22;;;;;;;8.30;5.03;;;8.20;1.00;;;;;;5005413;28;20942;-75
2024/01/06 12:04:54;;;;;;;9.27;4.37;;;8.20;1.00;;;;;;4992375;28;20216;-77
2024/01/06 12:07:22;;;;;;;7.60;4.83;;;8.20;1.00;;;;;;5010071;28;20548;-75
2024/01/06 12:09:59;;;;;;;8.40;4.93;;;8.20;1.00;;;;;;5012529;28;20449;-77
2024/01/06 12:12:25;;;;;;;8.43;4.87;;;8.20;1.00;;;;;;5008412;28;20803;-76
2024/01/06 12:14:51;;;;;;;7.10;4.90;;;8.10;1.00;;;;;;5008130;28;20421;-76
2024/01/06 12:17:16;;;;;;;10.13;4.63;;;8.10;1.00;;;;;;5008637;28;20185;-76
2024/01/06 12:19:42;;;;;;;7.87;4.80;;;8.10;1.00;;;;;;5009712;28;20289;-77
2024/01/06 12:22:11;;;;;;;7.07;4.67;;;8.20;1.00;;;;;;5009015;28;20189;-76
2024/01/06 12:24:37;;;;;;;11.07;5.37;;;8.10;1.00;;;;;;4992196;28;20710;-75
2024/01/06 12:27:02;;;;;;;8.20;4.40;;;8.00;1.00;;;;;;5009753;28;20548;-76
2024/01/06 12:29:28;;;;;;;9.03;4.50;;;8.10;1.00;;;;;;5010000;28;20284;-76
2024/01/06 12:31:55;;;;;;;8.10;5.60;;;8.10;1.00;;;;;;5009737;28;20284;-76
2024/01/06 12:34:21;;;;;;;8.03;4.43;;;8.20;1.00;;;;;;5009572;28;20513;-77
2024/01/06 12:36:47;;;;;;;7.53;4.77;;;8.60;1.00;;;;;;5009269;28;20429;-76
2024/01/06 12:39:13;;;;;;;7.30;4.57;;;8.20;1.00;;;;;;5009916;28;20757;-76
2024/01/06 12:41:42;;;;;;;5.97;4.37;;;8.20;1.00;;;;;;5006492;28;20183;-74
2024/01/06 12:44:11;;;;;;;7.80;5.50;;;8.30;1.00;;;;;;5006011;28;20425;-75
2024/01/06 12:46:36;;;;;;;7.30;4.80;;;8.30;1.00;;;;;;4991131;28;20507;-76
2024/01/06 12:49:02;;;;;;;8.77;4.40;;;8.30;1.00;;;;;;5009678;28;20518;-75
2024/01/06 12:51:28;;;;;;;6.60;4.30;;;8.30;1.00;;;;;;5009554;28;20206;-76
2024/01/06 12:53:53;;;;;;;6.90;4.20;;;8.30;1.00;;;;;;5004334;28;20437;-75
2024/01/06 12:56:19;;;;;;;6.47;4.57;;;8.20;1.00;;;;;;4999522;28;20209;-76
2024/01/06 12:58:45;;;;;;;7.83;4.10;;;8.20;1.00;;;;;;5004208;28;20769;-74